メインページ
METAR-TAF:

METAR-TAF

空港 :

ナイアガラフォールズ, ニューヨーク, アメリカ合衆国

緯度: 43-06-26N, 経度: 078-56-43W, 海抜: 180m

現時点の気象観測

当レポートは32分前の07:53(UTC)に作成
西/南西の風 9kt
気温 1°C
湿度 75%
気圧 1015 hPa
視程: 16.1km
晴天

METAR: KIAG 230753Z AUTO 24009KT 10SM CLR 01/M03 A2998 RMK AO2 SLP165 T00061033

時間: 04:25 (08:25 UTC)

予報

当レポートは2時間48分前の05:37(UTC)に作成
予報は23日の 06時(UTC)から 24日の 06時(UTC)まで有効
西/南西の風 7kt
視程: 10km
晴天
23日の 1500時(UTC)から
西/南西の風 13kt、最大21ktの突風を伴う
視程: 10km
晴天
23日の 1900時(UTC)から
南西の風 16kt、最大25ktの突風を伴う
視程: 10km
高度25000ftの雲はほとんどない
24日の 0000時(UTC)から
南西の風 14kt
視程: 10km
高度25000ftの雲はほとんどない
24日の 0300時(UTC)から
西/南西の風 11kt
視程: 10km
高度20000ftの雲はほとんどない

TAF: KIAG 230537Z 2306/2406 24007KT P6SM SKC FM231500 24013G21KT P6SM SKC FM231900 23016G25KT P6SM FEW250 FM240000 23014KT P6SM FEW250 FM240300 24011KT P6SM FEW200

4,000以上の空港の気象観測と天気予報(METAR報とTAF報)

利用可能な観測所は地図上に黄色い丸と赤い丸で示す。

丸の上にカーソルを重ねると観測所名を参照できる。

次にクリックすると気象観測と天気予報を参照できる。

マップの切り替え:黒色「×」印の緑ボタンをクリックして拡大、「-」印の緑ボタンをクリックして縮小、緑色の三角印をクリックして隣りの地図に切り替え


METAR-TAF: